sensor_id;sensor_type;location;lat;lon;timestamp;temperature;humidity
17182;DHT22;8706;48.254;16.422;2024-02-21T00:02:20;19.40;59.30
17182;DHT22;8706;48.254;16.422;2024-02-21T00:04:47;19.40;59.20
17182;DHT22;8706;48.254;16.422;2024-02-21T00:07:15;19.40;59.20
17182;DHT22;8706;48.254;16.422;2024-02-21T00:09:42;19.40;59.30
17182;DHT22;8706;48.254;16.422;2024-02-21T00:12:09;19.40;59.20
17182;DHT22;8706;48.254;16.422;2024-02-21T00:14:36;19.40;59.30
17182;DHT22;8706;48.254;16.422;2024-02-21T00:17:03;19.40;59.20
17182;DHT22;8706;48.254;16.422;2024-02-21T00:19:29;19.40;59.30
17182;DHT22;8706;48.254;16.422;2024-02-21T00:21:56;19.40;59.30
17182;DHT22;8706;48.254;16.422;2024-02-21T00:24:24;19.40;59.30
17182;DHT22;8706;48.254;16.422;2024-02-21T00:26:53;19.40;59.30
17182;DHT22;8706;48.254;16.422;2024-02-21T00:29:20;19.40;59.20
17182;DHT22;8706;48.254;16.422;2024-02-21T00:31:48;19.40;59.20
17182;DHT22;8706;48.254;16.422;2024-02-21T00:34:15;19.30;59.20
17182;DHT22;8706;48.254;16.422;2024-02-21T00:36:42;19.30;59.20
17182;DHT22;8706;48.254;16.422;2024-02-21T00:39:09;19.30;59.20
17182;DHT22;8706;48.254;16.422;2024-02-21T00:41:37;19.30;59.20
17182;DHT22;8706;48.254;16.422;2024-02-21T00:44:04;19.30;59.10
17182;DHT22;8706;48.254;16.422;2024-02-21T00:46:32;19.40;59.20
17182;DHT22;8706;48.254;16.422;2024-02-21T00:48:59;19.40;59.20
17182;DHT22;8706;48.254;16.422;2024-02-21T00:51:25;19.40;59.30
17182;DHT22;8706;48.254;16.422;2024-02-21T00:53:52;19.30;59.20
17182;DHT22;8706;48.254;16.422;2024-02-21T00:56:19;19.30;59.20
17182;DHT22;8706;48.254;16.422;2024-02-21T00:58:47;19.30;59.20
17182;DHT22;8706;48.254;16.422;2024-02-21T01:01:21;19.40;59.20
17182;DHT22;8706;48.254;16.422;2024-02-21T01:03:49;19.30;59.20
17182;DHT22;8706;48.254;16.422;2024-02-21T01:06:16;19.30;59.20
17182;DHT22;8706;48.254;16.422;2024-02-21T01:08:43;19.30;59.20
17182;DHT22;8706;48.254;16.422;2024-02-21T01:11:10;19.30;59.20
17182;DHT22;8706;48.254;16.422;2024-02-21T01:13:37;19.30;59.10
17182;DHT22;8706;48.254;16.422;2024-02-21T01:16:06;19.30;59.10
17182;DHT22;8706;48.254;16.422;2024-02-21T01:18:33;19.30;59.20
17182;DHT22;8706;48.254;16.422;2024-02-21T01:21:00;19.30;59.20
17182;DHT22;8706;48.254;16.422;2024-02-21T01:23:26;19.30;59.20
17182;DHT22;8706;48.254;16.422;2024-02-21T01:25:53;19.30;59.20
17182;DHT22;8706;48.254;16.422;2024-02-21T01:28:20;19.30;59.20
17182;DHT22;8706;48.254;16.422;2024-02-21T01:30:47;19.30;59.20
17182;DHT22;8706;48.254;16.422;2024-02-21T01:33:16;19.30;59.20
17182;DHT22;8706;48.254;16.422;2024-02-21T01:35:42;19.30;59.20
17182;DHT22;8706;48.254;16.422;2024-02-21T01:38:09;19.30;59.30
17182;DHT22;8706;48.254;16.422;2024-02-21T01:40:36;19.30;59.20
17182;DHT22;8706;48.254;16.422;2024-02-21T01:43:03;19.30;59.20
17182;DHT22;8706;48.254;16.422;2024-02-21T01:45:30;19.30;59.30
17182;DHT22;8706;48.254;16.422;2024-02-21T01:47:57;19.30;59.10
17182;DHT22;8706;48.254;16.422;2024-02-21T01:50:26;19.30;59.20
17182;DHT22;8706;48.254;16.422;2024-02-21T01:52:53;19.30;59.10
17182;DHT22;8706;48.254;16.422;2024-02-21T01:55:20;19.30;59.30
17182;DHT22;8706;48.254;16.422;2024-02-21T01:57:47;19.30;59.10
17182;DHT22;8706;48.254;16.422;2024-02-21T02:00:15;19.40;59.20
17182;DHT22;8706;48.254;16.422;2024-02-21T02:02:42;19.30;59.20
17182;DHT22;8706;48.254;16.422;2024-02-21T02:05:10;19.30;59.10
17182;DHT22;8706;48.254;16.422;2024-02-21T02:07:39;19.30;59.10
17182;DHT22;8706;48.254;16.422;2024-02-21T02:10:07;19.30;59.20
17182;DHT22;8706;48.254;16.422;2024-02-21T02:12:35;19.30;59.10
17182;DHT22;8706;48.254;16.422;2024-02-21T02:15:03;19.30;59.80
17182;DHT22;8706;48.254;16.422;2024-02-21T02:17:30;19.30;59.80
17182;DHT22;8706;48.254;16.422;2024-02-21T02:19:57;19.30;59.10
17182;DHT22;8706;48.254;16.422;2024-02-21T02:22:28;19.30;59.20
17182;DHT22;8706;48.254;16.422;2024-02-21T02:24:56;19.30;59.20
17182;DHT22;8706;48.254;16.422;2024-02-21T02:27:24;19.30;59.10
17182;DHT22;8706;48.254;16.422;2024-02-21T02:29:50;19.30;59.20
17182;DHT22;8706;48.254;16.422;2024-02-21T02:32:17;19.30;59.10
17182;DHT22;8706;48.254;16.422;2024-02-21T02:34:44;19.30;59.20
17182;DHT22;8706;48.254;16.422;2024-02-21T02:37:11;19.30;59.10
17182;DHT22;8706;48.254;16.422;2024-02-21T02:39:38;19.30;59.20
17182;DHT22;8706;48.254;16.422;2024-02-21T02:42:06;19.30;59.20
17182;DHT22;8706;48.254;16.422;2024-02-21T02:44:34;19.30;59.20
17182;DHT22;8706;48.254;16.422;2024-02-21T02:47:01;19.30;59.10
17182;DHT22;8706;48.254;16.422;2024-02-21T02:49:27;19.30;59.20
17182;DHT22;8706;48.254;16.422;2024-02-21T02:51:54;19.30;59.10
17182;DHT22;8706;48.254;16.422;2024-02-21T02:54:21;19.30;59.10
17182;DHT22;8706;48.254;16.422;2024-02-21T02:56:49;19.30;59.20
17182;DHT22;8706;48.254;16.422;2024-02-21T02:59:18;19.30;59.10
17182;DHT22;8706;48.254;16.422;2024-02-21T03:01:45;19.30;59.10
17182;DHT22;8706;48.254;16.422;2024-02-21T03:04:12;19.30;59.10
17182;DHT22;8706;48.254;16.422;2024-02-21T03:06:39;19.30;59.20
17182;DHT22;8706;48.254;16.422;2024-02-21T03:09:06;19.30;59.20
17182;DHT22;8706;48.254;16.422;2024-02-21T03:11:35;19.30;59.10
17182;DHT22;8706;48.254;16.422;2024-02-21T03:14:02;19.30;59.20
17182;DHT22;8706;48.254;16.422;2024-02-21T03:16:30;19.30;59.20
17182;DHT22;8706;48.254;16.422;2024-02-21T03:18:57;19.30;59.10
17182;DHT22;8706;48.254;16.422;2024-02-21T03:21:24;19.30;59.10
17182;DHT22;8706;48.254;16.422;2024-02-21T03:23:51;19.30;59.20
17182;DHT22;8706;48.254;16.422;2024-02-21T03:26:18;19.30;59.20
17182;DHT22;8706;48.254;16.422;2024-02-21T03:28:44;19.30;59.20
17182;DHT22;8706;48.254;16.422;2024-02-21T03:31:12;19.30;59.10
17182;DHT22;8706;48.254;16.422;2024-02-21T03:33:39;19.30;59.10
17182;DHT22;8706;48.254;16.422;2024-02-21T03:36:07;19.30;59.10
17182;DHT22;8706;48.254;16.422;2024-02-21T03:38:39;19.30;59.20
17182;DHT22;8706;48.254;16.422;2024-02-21T03:41:06;19.30;59.10
17182;DHT22;8706;48.254;16.422;2024-02-21T03:43:32;19.30;59.10
17182;DHT22;8706;48.254;16.422;2024-02-21T03:45:59;19.30;59.10
17182;DHT22;8706;48.254;16.422;2024-02-21T03:48:26;19.20;59.20
17182;DHT22;8706;48.254;16.422;2024-02-21T03:50:55;19.30;59.10
17182;DHT22;8706;48.254;16.422;2024-02-21T03:53:21;19.30;59.20
17182;DHT22;8706;48.254;16.422;2024-02-21T03:55:48;19.30;59.10
17182;DHT22;8706;48.254;16.422;2024-02-21T03:58:15;19.20;59.20
17182;DHT22;8706;48.254;16.422;2024-02-21T04:00:42;19.30;59.10
17182;DHT22;8706;48.254;16.422;2024-02-21T04:03:09;19.20;59.10
17182;DHT22;8706;48.254;16.422;2024-02-21T04:05:36;19.30;59.10
17182;DHT22;8706;48.254;16.422;2024-02-21T04:08:05;19.20;59.10
17182;DHT22;8706;48.254;16.422;2024-02-21T04:10:32;19.30;59.10
17182;DHT22;8706;48.254;16.422;2024-02-21T04:12:59;19.20;59.00
17182;DHT22;8706;48.254;16.422;2024-02-21T04:15:25;19.20;59.00
17182;DHT22;8706;48.254;16.422;2024-02-21T04:17:52;19.30;59.00
17182;DHT22;8706;48.254;16.422;2024-02-21T04:20:19;19.30;59.00
17182;DHT22;8706;48.254;16.422;2024-02-21T04:22:46;19.30;58.90
17182;DHT22;8706;48.254;16.422;2024-02-21T04:25:15;19.30;59.00
17182;DHT22;8706;48.254;16.422;2024-02-21T04:27:41;19.20;58.90
17182;DHT22;8706;48.254;16.422;2024-02-21T04:30:09;19.20;59.10
17182;DHT22;8706;48.254;16.422;2024-02-21T04:32:36;19.20;58.90
17182;DHT22;8706;48.254;16.422;2024-02-21T04:35:03;19.20;59.00
17182;DHT22;8706;48.254;16.422;2024-02-21T04:37:30;19.20;59.00
17182;DHT22;8706;48.254;16.422;2024-02-21T04:39:57;19.20;59.00
17182;DHT22;8706;48.254;16.422;2024-02-21T04:42:24;19.20;59.10
17182;DHT22;8706;48.254;16.422;2024-02-21T04:44:52;19.20;59.10
17182;DHT22;8706;48.254;16.422;2024-02-21T04:47:19;19.20;59.00
17182;DHT22;8706;48.254;16.422;2024-02-21T04:49:46;19.20;59.10
17182;DHT22;8706;48.254;16.422;2024-02-21T04:52:13;19.20;59.10
17182;DHT22;8706;48.254;16.422;2024-02-21T04:54:40;19.20;59.00
17182;DHT22;8706;48.254;16.422;2024-02-21T04:57:06;19.20;59.10
17182;DHT22;8706;48.254;16.422;2024-02-21T04:59:37;19.20;59.10
17182;DHT22;8706;48.254;16.422;2024-02-21T05:02:04;19.20;59.10
17182;DHT22;8706;48.254;16.422;2024-02-21T05:04:31;19.20;59.10
17182;DHT22;8706;48.254;16.422;2024-02-21T05:06:59;19.20;59.00
17182;DHT22;8706;48.254;16.422;2024-02-21T05:09:26;19.20;59.10
17182;DHT22;8706;48.254;16.422;2024-02-21T05:11:53;19.20;59.00
17182;DHT22;8706;48.254;16.422;2024-02-21T05:14:20;19.20;59.10
17182;DHT22;8706;48.254;16.422;2024-02-21T05:16:48;19.20;59.00
17182;DHT22;8706;48.254;16.422;2024-02-21T05:19:15;19.20;59.00
17182;DHT22;8706;48.254;16.422;2024-02-21T05:21:42;19.10;59.00
17182;DHT22;8706;48.254;16.422;2024-02-21T05:24:08;19.20;59.00
17182;DHT22;8706;48.254;16.422;2024-02-21T05:26:35;19.20;59.00
17182;DHT22;8706;48.254;16.422;2024-02-21T05:29:02;19.20;59.00
17182;DHT22;8706;48.254;16.422;2024-02-21T05:31:43;19.20;59.00
17182;DHT22;8706;48.254;16.422;2024-02-21T05:34:22;19.20;59.00
17182;DHT22;8706;48.254;16.422;2024-02-21T05:36:49;19.20;59.00
17182;DHT22;8706;48.254;16.422;2024-02-21T05:39:16;19.20;59.00
17182;DHT22;8706;48.254;16.422;2024-02-21T05:41:44;19.20;59.00
17182;DHT22;8706;48.254;16.422;2024-02-21T05:44:10;19.20;59.00
17182;DHT22;8706;48.254;16.422;2024-02-21T05:46:37;19.20;59.00
17182;DHT22;8706;48.254;16.422;2024-02-21T05:49:04;19.20;59.00
17182;DHT22;8706;48.254;16.422;2024-02-21T05:51:34;19.20;59.00
17182;DHT22;8706;48.254;16.422;2024-02-21T05:54:01;19.20;59.00
17182;DHT22;8706;48.254;16.422;2024-02-21T05:56:28;19.20;59.00
17182;DHT22;8706;48.254;16.422;2024-02-21T05:58:55;19.20;59.00
17182;DHT22;8706;48.254;16.422;2024-02-21T06:01:22;19.20;59.10
17182;DHT22;8706;48.254;16.422;2024-02-21T06:03:48;19.20;59.00
17182;DHT22;8706;48.254;16.422;2024-02-21T06:06:15;19.20;59.10
17182;DHT22;8706;48.254;16.422;2024-02-21T06:08:44;19.20;59.00
17182;DHT22;8706;48.254;16.422;2024-02-21T06:11:10;19.20;59.00
17182;DHT22;8706;48.254;16.422;2024-02-21T06:13:38;19.20;59.00
17182;DHT22;8706;48.254;16.422;2024-02-21T06:16:06;19.20;58.90
17182;DHT22;8706;48.254;16.422;2024-02-21T06:18:35;19.20;59.00
17182;DHT22;8706;48.254;16.422;2024-02-21T06:21:03;19.20;59.00
17182;DHT22;8706;48.254;16.422;2024-02-21T06:23:31;19.20;59.00
17182;DHT22;8706;48.254;16.422;2024-02-21T06:25:59;19.20;58.90
17182;DHT22;8706;48.254;16.422;2024-02-21T06:28:26;19.20;58.90
17182;DHT22;8706;48.254;16.422;2024-02-21T06:30:53;19.20;58.90
17182;DHT22;8706;48.254;16.422;2024-02-21T06:33:19;19.20;58.90
17182;DHT22;8706;48.254;16.422;2024-02-21T06:35:50;19.20;58.90
17182;DHT22;8706;48.254;16.422;2024-02-21T06:38:18;19.20;58.90
17182;DHT22;8706;48.254;16.422;2024-02-21T06:40:45;19.20;58.90
17182;DHT22;8706;48.254;16.422;2024-02-21T06:43:18;19.20;58.90
17182;DHT22;8706;48.254;16.422;2024-02-21T06:45:45;19.20;58.90
17182;DHT22;8706;48.254;16.422;2024-02-21T06:48:16;19.20;58.80
17182;DHT22;8706;48.254;16.422;2024-02-21T06:50:43;19.20;58.80
17182;DHT22;8706;48.254;16.422;2024-02-21T06:53:10;19.30;58.90
17182;DHT22;8706;48.254;16.422;2024-02-21T06:55:37;18.50;53.10
17182;DHT22;8706;48.254;16.422;2024-02-21T06:58:04;17.30;53.50
17182;DHT22;8706;48.254;16.422;2024-02-21T07:00:32;16.70;53.90
17182;DHT22;8706;48.254;16.422;2024-02-21T07:02:59;16.50;53.70
17182;DHT22;8706;48.254;16.422;2024-02-21T07:05:26;16.50;53.70
17182;DHT22;8706;48.254;16.422;2024-02-21T07:07:52;16.40;54.00
17182;DHT22;8706;48.254;16.422;2024-02-21T07:10:19;16.20;53.70
17182;DHT22;8706;48.254;16.422;2024-02-21T07:12:46;16.20;53.70
17182;DHT22;8706;48.254;16.422;2024-02-21T07:15:14;16.30;53.90
17182;DHT22;8706;48.254;16.422;2024-02-21T07:17:42;16.40;55.10
17182;DHT22;8706;48.254;16.422;2024-02-21T07:20:10;17.10;54.90
17182;DHT22;8706;48.254;16.422;2024-02-21T07:22:37;17.50;54.20
17182;DHT22;8706;48.254;16.422;2024-02-21T07:25:04;17.80;53.70
17182;DHT22;8706;48.254;16.422;2024-02-21T07:27:31;18.10;53.70
17182;DHT22;8706;48.254;16.422;2024-02-21T07:29:58;18.30;53.70
17182;DHT22;8706;48.254;16.422;2024-02-21T07:32:25;18.40;53.80
17182;DHT22;8706;48.254;16.422;2024-02-21T07:34:53;18.60;54.00
17182;DHT22;8706;48.254;16.422;2024-02-21T07:37:20;18.70;54.00
17182;DHT22;8706;48.254;16.422;2024-02-21T07:39:47;18.80;54.00
17182;DHT22;8706;48.254;16.422;2024-02-21T07:42:14;18.90;54.00
17182;DHT22;8706;48.254;16.422;2024-02-21T07:44:41;19.00;54.10
17182;DHT22;8706;48.254;16.422;2024-02-21T07:47:08;19.10;54.10
17182;DHT22;8706;48.254;16.422;2024-02-21T07:49:41;19.10;54.20
17182;DHT22;8706;48.254;16.422;2024-02-21T07:52:09;19.20;54.20
17182;DHT22;8706;48.254;16.422;2024-02-21T07:54:36;19.20;54.30
17182;DHT22;8706;48.254;16.422;2024-02-21T07:57:03;19.30;54.30
17182;DHT22;8706;48.254;16.422;2024-02-21T07:59:30;19.40;54.80
17182;DHT22;8706;48.254;16.422;2024-02-21T08:01:57;19.50;55.10
17182;DHT22;8706;48.254;16.422;2024-02-21T08:04:24;19.60;55.50
17182;DHT22;8706;48.254;16.422;2024-02-21T08:06:52;19.70;56.40
17182;DHT22;8706;48.254;16.422;2024-02-21T08:09:22;19.80;56.00
17182;DHT22;8706;48.254;16.422;2024-02-21T08:11:49;19.90;55.90
17182;DHT22;8706;48.254;16.422;2024-02-21T08:14:17;19.90;55.90
17182;DHT22;8706;48.254;16.422;2024-02-21T08:16:44;20.00;56.20
17182;DHT22;8706;48.254;16.422;2024-02-21T08:19:11;20.10;56.50
17182;DHT22;8706;48.254;16.422;2024-02-21T08:21:38;20.20;56.30
17182;DHT22;8706;48.254;16.422;2024-02-21T08:24:05;20.30;56.00
17182;DHT22;8706;48.254;16.422;2024-02-21T08:26:33;21.10;55.50
17182;DHT22;8706;48.254;16.422;2024-02-21T08:29:01;21.60;54.20
17182;DHT22;8706;48.254;16.422;2024-02-21T08:31:28;22.20;53.80
17182;DHT22;8706;48.254;16.422;2024-02-21T08:33:57;22.50;53.00
17182;DHT22;8706;48.254;16.422;2024-02-21T08:36:28;21.90;53.50
17182;DHT22;8706;48.254;16.422;2024-02-21T08:38:56;21.60;54.40
17182;DHT22;8706;48.254;16.422;2024-02-21T08:41:23;21.70;54.10
17182;DHT22;8706;48.254;16.422;2024-02-21T08:43:52;21.60;54.30
17182;DHT22;8706;48.254;16.422;2024-02-21T08:46:19;21.60;54.40
17182;DHT22;8706;48.254;16.422;2024-02-21T08:48:46;21.80;54.20
17182;DHT22;8706;48.254;16.422;2024-02-21T08:51:13;21.80;54.40
17182;DHT22;8706;48.254;16.422;2024-02-21T08:53:40;21.70;54.30
17182;DHT22;8706;48.254;16.422;2024-02-21T08:56:07;21.70;54.60
17182;DHT22;8706;48.254;16.422;2024-02-21T08:58:35;21.60;54.60
17182;DHT22;8706;48.254;16.422;2024-02-21T09:01:05;21.60;54.80
17182;DHT22;8706;48.254;16.422;2024-02-21T09:03:32;21.60;54.80
17182;DHT22;8706;48.254;16.422;2024-02-21T09:05:59;21.70;54.70
17182;DHT22;8706;48.254;16.422;2024-02-21T09:08:27;20.70;50.10
17182;DHT22;8706;48.254;16.422;2024-02-21T09:10:53;20.00;51.50
17182;DHT22;8706;48.254;16.422;2024-02-21T09:13:20;19.80;50.30
17182;DHT22;8706;48.254;16.422;2024-02-21T09:15:48;19.70;50.20
17182;DHT22;8706;48.254;16.422;2024-02-21T09:18:16;19.70;51.00
17182;DHT22;8706;48.254;16.422;2024-02-21T09:20:43;20.20;49.90
17182;DHT22;8706;48.254;16.422;2024-02-21T09:23:10;20.30;49.20
17182;DHT22;8706;48.254;16.422;2024-02-21T09:25:37;20.60;48.40
17182;DHT22;8706;48.254;16.422;2024-02-21T09:28:05;21.20;48.30
17182;DHT22;8706;48.254;16.422;2024-02-21T09:30:32;23.10;48.20
17182;DHT22;8706;48.254;16.422;2024-02-21T09:32:59;24.30;46.70
17182;DHT22;8706;48.254;16.422;2024-02-21T09:35:28;25.00;45.90
17182;DHT22;8706;48.254;16.422;2024-02-21T09:37:55;25.40;45.40
17182;DHT22;8706;48.254;16.422;2024-02-21T09:40:22;25.70;45.10
17182;DHT22;8706;48.254;16.422;2024-02-21T09:42:57;26.00;45.10
17182;DHT22;8706;48.254;16.422;2024-02-21T09:45:28;26.30;44.90
17182;DHT22;8706;48.254;16.422;2024-02-21T09:48:12;26.50;44.80
17182;DHT22;8706;48.254;16.422;2024-02-21T09:50:44;26.80;44.60
17182;DHT22;8706;48.254;16.422;2024-02-21T09:53:12;26.50;44.70
17182;DHT22;8706;48.254;16.422;2024-02-21T09:55:40;26.50;44.50
17182;DHT22;8706;48.254;16.422;2024-02-21T09:58:08;26.70;44.70
17182;DHT22;8706;48.254;16.422;2024-02-21T10:00:35;27.10;44.40
17182;DHT22;8706;48.254;16.422;2024-02-21T10:03:02;27.30;44.30
17182;DHT22;8706;48.254;16.422;2024-02-21T10:05:33;27.40;44.00
17182;DHT22;8706;48.254;16.422;2024-02-21T10:08:03;27.70;44.10
17182;DHT22;8706;48.254;16.422;2024-02-21T10:10:30;27.90;43.90
17182;DHT22;8706;48.254;16.422;2024-02-21T10:12:56;27.70;44.20
17182;DHT22;8706;48.254;16.422;2024-02-21T10:15:24;27.90;44.20
17182;DHT22;8706;48.254;16.422;2024-02-21T10:17:59;28.30;44.20
17182;DHT22;8706;48.254;16.422;2024-02-21T10:20:26;28.60;43.80
17182;DHT22;8706;48.254;16.422;2024-02-21T10:23:02;28.40;44.20
17182;DHT22;8706;48.254;16.422;2024-02-21T10:25:33;28.40;44.10
17182;DHT22;8706;48.254;16.422;2024-02-21T10:28:01;27.50;44.90
17182;DHT22;8706;48.254;16.422;2024-02-21T10:30:28;26.70;45.80
17182;DHT22;8706;48.254;16.422;2024-02-21T10:32:56;26.20;46.60
17182;DHT22;8706;48.254;16.422;2024-02-21T10:35:27;25.70;47.30
17182;DHT22;8706;48.254;16.422;2024-02-21T10:37:55;25.20;48.00
17182;DHT22;8706;48.254;16.422;2024-02-21T10:40:24;24.80;48.30
17182;DHT22;8706;48.254;16.422;2024-02-21T10:42:56;24.60;48.70
17182;DHT22;8706;48.254;16.422;2024-02-21T10:45:29;24.50;49.10
17182;DHT22;8706;48.254;16.422;2024-02-21T10:48:08;24.40;49.40
17182;DHT22;8706;48.254;16.422;2024-02-21T10:50:47;24.30;49.80
17182;DHT22;8706;48.254;16.422;2024-02-21T10:53:22;24.30;50.10
17182;DHT22;8706;48.254;16.422;2024-02-21T10:55:58;24.20;50.20
17182;DHT22;8706;48.254;16.422;2024-02-21T10:58:28;23.90;50.70
17182;DHT22;8706;48.254;16.422;2024-02-21T11:00:56;23.70;51.00
17182;DHT22;8706;48.254;16.422;2024-02-21T11:03:23;23.60;51.50
17182;DHT22;8706;48.254;16.422;2024-02-21T11:05:50;23.50;51.80
17182;DHT22;8706;48.254;16.422;2024-02-21T11:08:17;23.40;52.00
17182;DHT22;8706;48.254;16.422;2024-02-21T11:10:46;23.30;52.00
17182;DHT22;8706;48.254;16.422;2024-02-21T11:13:14;23.20;52.20
17182;DHT22;8706;48.254;16.422;2024-02-21T11:15:41;23.10;52.60
17182;DHT22;8706;48.254;16.422;2024-02-21T11:18:08;23.00;52.80
17182;DHT22;8706;48.254;16.422;2024-02-21T11:20:36;23.00;52.90
17182;DHT22;8706;48.254;16.422;2024-02-21T11:23:04;22.90;52.40
17182;DHT22;8706;48.254;16.422;2024-02-21T11:25:31;22.90;52.60
17182;DHT22;8706;48.254;16.422;2024-02-21T11:28:00;22.80;53.00
17182;DHT22;8706;48.254;16.422;2024-02-21T11:30:30;22.70;53.30
17182;DHT22;8706;48.254;16.422;2024-02-21T11:33:01;22.60;54.10
17182;DHT22;8706;48.254;16.422;2024-02-21T11:35:32;22.60;53.60
17182;DHT22;8706;48.254;16.422;2024-02-21T11:38:12;22.50;53.20
17182;DHT22;8706;48.254;16.422;2024-02-21T11:40:43;22.50;53.80
17182;DHT22;8706;48.254;16.422;2024-02-21T11:43:10;22.50;54.10
17182;DHT22;8706;48.254;16.422;2024-02-21T11:45:38;22.50;54.20
17182;DHT22;8706;48.254;16.422;2024-02-21T11:48:06;22.50;53.60
17182;DHT22;8706;48.254;16.422;2024-02-21T11:50:34;22.50;54.50
17182;DHT22;8706;48.254;16.422;2024-02-21T11:53:02;22.40;54.40
17182;DHT22;8706;48.254;16.422;2024-02-21T11:55:29;22.40;54.50
17182;DHT22;8706;48.254;16.422;2024-02-21T11:57:56;22.50;54.40
17182;DHT22;8706;48.254;16.422;2024-02-21T12:00:25;22.50;54.60
17182;DHT22;8706;48.254;16.422;2024-02-21T12:02:54;22.60;54.50
17182;DHT22;8706;48.254;16.422;2024-02-21T12:05:27;22.50;54.60
17182;DHT22;8706;48.254;16.422;2024-02-21T12:07:54;22.50;54.70
17182;DHT22;8706;48.254;16.422;2024-02-21T12:10:21;22.50;54.80
17182;DHT22;8706;48.254;16.422;2024-02-21T12:12:48;22.50;54.90
17182;DHT22;8706;48.254;16.422;2024-02-21T12:15:18;22.50;55.00
17182;DHT22;8706;48.254;16.422;2024-02-21T12:17:45;22.40;55.10
17182;DHT22;8706;48.254;16.422;2024-02-21T12:20:14;22.30;55.40
17182;DHT22;8706;48.254;16.422;2024-02-21T12:22:42;22.30;55.50
17182;DHT22;8706;48.254;16.422;2024-02-21T12:25:16;22.20;55.60
17182;DHT22;8706;48.254;16.422;2024-02-21T12:27:44;22.10;55.80
17182;DHT22;8706;48.254;16.422;2024-02-21T12:30:11;22.10;55.90
17182;DHT22;8706;48.254;16.422;2024-02-21T12:32:38;22.10;55.90
17182;DHT22;8706;48.254;16.422;2024-02-21T12:35:07;22.10;56.00
17182;DHT22;8706;48.254;16.422;2024-02-21T12:37:35;22.10;56.20
17182;DHT22;8706;48.254;16.422;2024-02-21T12:40:04;22.10;56.20
17182;DHT22;8706;48.254;16.422;2024-02-21T12:42:32;22.00;56.60
17182;DHT22;8706;48.254;16.422;2024-02-21T12:45:00;21.90;56.60
17182;DHT22;8706;48.254;16.422;2024-02-21T12:47:27;21.90;56.80
17182;DHT22;8706;48.254;16.422;2024-02-21T12:49:53;21.80;56.90
17182;DHT22;8706;48.254;16.422;2024-02-21T12:52:20;21.80;57.00
17182;DHT22;8706;48.254;16.422;2024-02-21T12:54:49;21.90;57.00
17182;DHT22;8706;48.254;16.422;2024-02-21T12:57:17;22.00;56.90
17182;DHT22;8706;48.254;16.422;2024-02-21T12:59:44;22.10;56.70
17182;DHT22;8706;48.254;16.422;2024-02-21T13:02:11;22.20;56.60
17182;DHT22;8706;48.254;16.422;2024-02-21T13:04:37;22.20;56.40
17182;DHT22;8706;48.254;16.422;2024-02-21T13:07:07;22.20;56.60
17182;DHT22;8706;48.254;16.422;2024-02-21T13:09:34;22.30;56.60
17182;DHT22;8706;48.254;16.422;2024-02-21T13:12:02;22.20;56.60
17182;DHT22;8706;48.254;16.422;2024-02-21T13:14:29;22.20;56.80
17182;DHT22;8706;48.254;16.422;2024-02-21T13:16:58;22.10;56.80
17182;DHT22;8706;48.254;16.422;2024-02-21T13:19:25;22.10;56.90
17182;DHT22;8706;48.254;16.422;2024-02-21T13:21:52;22.10;56.90
17182;DHT22;8706;48.254;16.422;2024-02-21T13:24:19;22.20;57.00
17182;DHT22;8706;48.254;16.422;2024-02-21T13:26:46;22.20;56.90
17182;DHT22;8706;48.254;16.422;2024-02-21T13:29:14;22.30;56.80
17182;DHT22;8706;48.254;16.422;2024-02-21T13:31:41;22.50;56.50
17182;DHT22;8706;48.254;16.422;2024-02-21T13:34:08;22.70;56.10
17182;DHT22;8706;48.254;16.422;2024-02-21T13:36:35;22.80;56.00
17182;DHT22;8706;48.254;16.422;2024-02-21T13:39:02;22.60;56.00
17182;DHT22;8706;48.254;16.422;2024-02-21T13:41:30;22.50;56.00
17182;DHT22;8706;48.254;16.422;2024-02-21T13:43:59;22.40;56.30
17182;DHT22;8706;48.254;16.422;2024-02-21T13:46:28;22.40;56.50
17182;DHT22;8706;48.254;16.422;2024-02-21T13:49:03;22.40;56.50
17182;DHT22;8706;48.254;16.422;2024-02-21T13:51:32;22.30;56.00
17182;DHT22;8706;48.254;16.422;2024-02-21T13:53:59;22.30;56.30
17182;DHT22;8706;48.254;16.422;2024-02-21T13:56:26;22.20;56.60
17182;DHT22;8706;48.254;16.422;2024-02-21T13:58:53;22.30;56.20
17182;DHT22;8706;48.254;16.422;2024-02-21T14:01:20;22.30;56.70
17182;DHT22;8706;48.254;16.422;2024-02-21T14:03:48;22.30;56.70
17182;DHT22;8706;48.254;16.422;2024-02-21T14:06:15;22.20;56.60
17182;DHT22;8706;48.254;16.422;2024-02-21T14:08:42;22.20;57.10
17182;DHT22;8706;48.254;16.422;2024-02-21T14:11:09;22.10;57.50
17182;DHT22;8706;48.254;16.422;2024-02-21T14:13:36;22.00;57.50
17182;DHT22;8706;48.254;16.422;2024-02-21T14:16:09;21.90;57.80
17182;DHT22;8706;48.254;16.422;2024-02-21T14:18:37;21.90;57.90
17182;DHT22;8706;48.254;16.422;2024-02-21T14:21:06;21.90;58.10
17182;DHT22;8706;48.254;16.422;2024-02-21T14:23:32;21.80;58.10
17182;DHT22;8706;48.254;16.422;2024-02-21T14:26:00;21.80;58.20
17182;DHT22;8706;48.254;16.422;2024-02-21T14:28:27;21.80;58.10
17182;DHT22;8706;48.254;16.422;2024-02-21T14:30:53;21.80;58.00
17182;DHT22;8706;48.254;16.422;2024-02-21T14:33:23;21.80;58.10
17182;DHT22;8706;48.254;16.422;2024-02-21T14:35:49;21.80;58.20
17182;DHT22;8706;48.254;16.422;2024-02-21T14:38:18;21.80;58.20
17182;DHT22;8706;48.254;16.422;2024-02-21T14:40:45;21.80;58.20
17182;DHT22;8706;48.254;16.422;2024-02-21T14:43:12;21.80;58.20
17182;DHT22;8706;48.254;16.422;2024-02-21T14:45:39;21.80;58.20
17182;DHT22;8706;48.254;16.422;2024-02-21T14:48:07;21.80;58.20
17182;DHT22;8706;48.254;16.422;2024-02-21T14:50:33;21.80;58.20
17182;DHT22;8706;48.254;16.422;2024-02-21T14:53:01;21.90;58.20
17182;DHT22;8706;48.254;16.422;2024-02-21T14:55:29;22.00;58.00
17182;DHT22;8706;48.254;16.422;2024-02-21T14:57:56;22.00;58.00
17182;DHT22;8706;48.254;16.422;2024-02-21T15:00:22;22.20;57.60
17182;DHT22;8706;48.254;16.422;2024-02-21T15:02:55;22.40;57.30
17182;DHT22;8706;48.254;16.422;2024-02-21T15:05:23;22.50;57.00
17182;DHT22;8706;48.254;16.422;2024-02-21T15:07:50;22.50;56.90
17182;DHT22;8706;48.254;16.422;2024-02-21T15:10:17;22.40;56.90
17182;DHT22;8706;48.254;16.422;2024-02-21T15:12:46;22.50;56.90
17182;DHT22;8706;48.254;16.422;2024-02-21T15:15:13;22.60;56.70
17182;DHT22;8706;48.254;16.422;2024-02-21T15:17:40;22.60;56.20
17182;DHT22;8706;48.254;16.422;2024-02-21T15:20:08;22.60;56.60
17182;DHT22;8706;48.254;16.422;2024-02-21T15:22:36;22.50;56.50
17182;DHT22;8706;48.254;16.422;2024-02-21T15:25:04;22.40;56.90
17182;DHT22;8706;48.254;16.422;2024-02-21T15:27:31;22.30;56.90
17182;DHT22;8706;48.254;16.422;2024-02-21T15:30:01;22.20;56.80
17182;DHT22;8706;48.254;16.422;2024-02-21T15:32:28;22.10;56.90
17182;DHT22;8706;48.254;16.422;2024-02-21T15:34:55;22.10;56.90